sensor_id;sensor_type;location;lat;lon;timestamp;P1;durP1;ratioP1;P2;durP2;ratioP2
71048;SDS011;58704;53.358;-6.238;2023-11-19T00:00:24;16.33;;;2.90;;
71048;SDS011;58704;53.358;-6.238;2023-11-19T00:02:50;18.80;;;2.97;;
71048;SDS011;58704;53.358;-6.238;2023-11-19T00:05:15;16.33;;;4.00;;
71048;SDS011;58704;53.358;-6.238;2023-11-19T00:07:40;20.90;;;3.87;;
71048;SDS011;58704;53.358;-6.238;2023-11-19T00:10:09;18.05;;;3.25;;
71048;SDS011;58704;53.358;-6.238;2023-11-19T00:12:36;16.97;;;2.73;;
71048;SDS011;58704;53.358;-6.238;2023-11-19T00:15:01;20.52;;;3.60;;
71048;SDS011;58704;53.358;-6.238;2023-11-19T00:17:27;20.03;;;3.40;;
71048;SDS011;58704;53.358;-6.238;2023-11-19T00:19:52;15.02;;;2.92;;
71048;SDS011;58704;53.358;-6.238;2023-11-19T00:22:17;22.60;;;3.67;;
71048;SDS011;58704;53.358;-6.238;2023-11-19T00:24:42;16.17;;;3.30;;
71048;SDS011;58704;53.358;-6.238;2023-11-19T00:27:08;17.73;;;3.10;;
71048;SDS011;58704;53.358;-6.238;2023-11-19T00:29:33;22.63;;;4.40;;
71048;SDS011;58704;53.358;-6.238;2023-11-19T00:31:58;22.97;;;3.80;;
71048;SDS011;58704;53.358;-6.238;2023-11-19T00:34:23;12.70;;;3.07;;
71048;SDS011;58704;53.358;-6.238;2023-11-19T00:36:49;25.03;;;3.83;;
71048;SDS011;58704;53.358;-6.238;2023-11-19T00:39:14;16.20;;;3.57;;
71048;SDS011;58704;53.358;-6.238;2023-11-19T00:41:40;23.55;;;3.35;;
71048;SDS011;58704;53.358;-6.238;2023-11-19T00:44:05;18.40;;;3.70;;
71048;SDS011;58704;53.358;-6.238;2023-11-19T00:46:30;17.40;;;3.13;;
71048;SDS011;58704;53.358;-6.238;2023-11-19T00:48:57;20.80;;;3.03;;
71048;SDS011;58704;53.358;-6.238;2023-11-19T00:51:24;19.60;;;2.95;;
71048;SDS011;58704;53.358;-6.238;2023-11-19T00:53:49;18.63;;;3.07;;
71048;SDS011;58704;53.358;-6.238;2023-11-19T00:56:15;26.63;;;4.03;;
71048;SDS011;58704;53.358;-6.238;2023-11-19T00:58:42;18.48;;;3.28;;
71048;SDS011;58704;53.358;-6.238;2023-11-19T01:01:07;25.47;;;3.67;;
71048;SDS011;58704;53.358;-6.238;2023-11-19T01:03:32;20.43;;;3.47;;
71048;SDS011;58704;53.358;-6.238;2023-11-19T01:05:58;23.90;;;3.53;;
71048;SDS011;58704;53.358;-6.238;2023-11-19T01:08:24;25.17;;;3.75;;
71048;SDS011;58704;53.358;-6.238;2023-11-19T01:10:50;16.17;;;3.30;;
71048;SDS011;58704;53.358;-6.238;2023-11-19T01:13:15;17.67;;;3.43;;
71048;SDS011;58704;53.358;-6.238;2023-11-19T01:15:40;20.37;;;3.60;;
71048;SDS011;58704;53.358;-6.238;2023-11-19T01:18:06;18.57;;;3.43;;
71048;SDS011;58704;53.358;-6.238;2023-11-19T01:20:34;17.92;;;3.22;;
71048;SDS011;58704;53.358;-6.238;2023-11-19T01:22:59;21.60;;;3.40;;
71048;SDS011;58704;53.358;-6.238;2023-11-19T01:25:25;15.50;;;2.63;;
71048;SDS011;58704;53.358;-6.238;2023-11-19T01:27:50;19.03;;;2.90;;
71048;SDS011;58704;53.358;-6.238;2023-11-19T01:30:15;17.97;;;2.97;;
71048;SDS011;58704;53.358;-6.238;2023-11-19T01:32:41;15.07;;;2.87;;
71048;SDS011;58704;53.358;-6.238;2023-11-19T01:35:06;23.57;;;3.83;;
71048;SDS011;58704;53.358;-6.238;2023-11-19T01:37:33;13.73;;;2.75;;
71048;SDS011;58704;53.358;-6.238;2023-11-19T01:39:59;18.63;;;3.53;;
71048;SDS011;58704;53.358;-6.238;2023-11-19T01:42:25;16.53;;;3.30;;
71048;SDS011;58704;53.358;-6.238;2023-11-19T01:45:00;16.60;;;3.60;;
71048;SDS011;58704;53.358;-6.238;2023-11-19T01:47:26;12.90;;;2.30;;
71048;SDS011;58704;53.358;-6.238;2023-11-19T01:49:51;17.77;;;3.22;;
71048;SDS011;58704;53.358;-6.238;2023-11-19T01:52:17;16.70;;;2.53;;
71048;SDS011;58704;53.358;-6.238;2023-11-19T01:54:43;16.05;;;2.17;;
71048;SDS011;58704;53.358;-6.238;2023-11-19T01:57:08;13.83;;;2.53;;
71048;SDS011;58704;53.358;-6.238;2023-11-19T01:59:34;21.00;;;3.63;;
71048;SDS011;58704;53.358;-6.238;2023-11-19T02:01:59;14.97;;;2.50;;
71048;SDS011;58704;53.358;-6.238;2023-11-19T02:04:24;11.47;;;2.10;;
71048;SDS011;58704;53.358;-6.238;2023-11-19T02:06:50;14.50;;;2.88;;
71048;SDS011;58704;53.358;-6.238;2023-11-19T02:09:17;11.68;;;2.88;;
71048;SDS011;58704;53.358;-6.238;2023-11-19T02:11:44;13.17;;;2.67;;
71048;SDS011;58704;53.358;-6.238;2023-11-19T02:14:09;17.38;;;3.75;;
71048;SDS011;58704;53.358;-6.238;2023-11-19T02:16:36;11.63;;;2.70;;
71048;SDS011;58704;53.358;-6.238;2023-11-19T02:19:01;15.38;;;2.50;;
71048;SDS011;58704;53.358;-6.238;2023-11-19T02:21:26;17.07;;;2.83;;
71048;SDS011;58704;53.358;-6.238;2023-11-19T02:23:51;15.00;;;2.23;;
71048;SDS011;58704;53.358;-6.238;2023-11-19T02:26:28;16.13;;;2.63;;
71048;SDS011;58704;53.358;-6.238;2023-11-19T02:28:58;11.55;;;2.25;;
71048;SDS011;58704;53.358;-6.238;2023-11-19T02:31:23;12.60;;;2.53;;
71048;SDS011;58704;53.358;-6.238;2023-11-19T02:33:49;11.77;;;2.10;;
71048;SDS011;58704;53.358;-6.238;2023-11-19T02:36:15;17.55;;;2.65;;
71048;SDS011;58704;53.358;-6.238;2023-11-19T02:38:40;12.97;;;3.07;;
71048;SDS011;58704;53.358;-6.238;2023-11-19T02:41:06;14.77;;;2.50;;
71048;SDS011;58704;53.358;-6.238;2023-11-19T02:43:34;10.13;;;2.13;;
71048;SDS011;58704;53.358;-6.238;2023-11-19T02:46:03;14.65;;;2.70;;
71048;SDS011;58704;53.358;-6.238;2023-11-19T02:48:31;10.93;;;1.85;;
71048;SDS011;58704;53.358;-6.238;2023-11-19T02:50:57;13.07;;;2.27;;
71048;SDS011;58704;53.358;-6.238;2023-11-19T02:53:23;18.50;;;2.80;;
71048;SDS011;58704;53.358;-6.238;2023-11-19T02:55:49;12.40;;;2.40;;
71048;SDS011;58704;53.358;-6.238;2023-11-19T02:58:15;21.93;;;3.13;;
71048;SDS011;58704;53.358;-6.238;2023-11-19T03:00:48;20.13;;;3.00;;
71048;SDS011;58704;53.358;-6.238;2023-11-19T03:03:19;14.40;;;2.03;;
71048;SDS011;58704;53.358;-6.238;2023-11-19T03:05:47;10.88;;;2.22;;
71048;SDS011;58704;53.358;-6.238;2023-11-19T03:08:13;13.90;;;2.63;;
71048;SDS011;58704;53.358;-6.238;2023-11-19T03:10:38;18.25;;;2.38;;
71048;SDS011;58704;53.358;-6.238;2023-11-19T03:13:04;14.20;;;3.23;;
71048;SDS011;58704;53.358;-6.238;2023-11-19T03:15:29;14.50;;;2.70;;
71048;SDS011;58704;53.358;-6.238;2023-11-19T03:17:54;19.57;;;3.17;;
71048;SDS011;58704;53.358;-6.238;2023-11-19T03:20:20;15.98;;;2.33;;
71048;SDS011;58704;53.358;-6.238;2023-11-19T03:22:46;19.57;;;3.23;;
71048;SDS011;58704;53.358;-6.238;2023-11-19T03:25:11;19.37;;;3.00;;
71048;SDS011;58704;53.358;-6.238;2023-11-19T03:27:39;11.40;;;2.73;;
71048;SDS011;58704;53.358;-6.238;2023-11-19T03:30:06;14.13;;;2.60;;
71048;SDS011;58704;53.358;-6.238;2023-11-19T03:32:32;14.13;;;2.60;;
71048;SDS011;58704;53.358;-6.238;2023-11-19T03:34:58;14.30;;;2.65;;
71048;SDS011;58704;53.358;-6.238;2023-11-19T03:37:24;14.30;;;2.28;;
71048;SDS011;58704;53.358;-6.238;2023-11-19T03:39:50;17.10;;;2.67;;
71048;SDS011;58704;53.358;-6.238;2023-11-19T03:42:16;18.13;;;2.80;;
71048;SDS011;58704;53.358;-6.238;2023-11-19T03:44:41;13.53;;;2.33;;
71048;SDS011;58704;53.358;-6.238;2023-11-19T03:47:06;11.23;;;2.27;;
71048;SDS011;58704;53.358;-6.238;2023-11-19T03:49:32;16.27;;;2.23;;
71048;SDS011;58704;53.358;-6.238;2023-11-19T03:51:57;18.37;;;2.43;;
71048;SDS011;58704;53.358;-6.238;2023-11-19T03:54:22;13.30;;;2.23;;
71048;SDS011;58704;53.358;-6.238;2023-11-19T03:56:48;14.50;;;2.30;;
71048;SDS011;58704;53.358;-6.238;2023-11-19T03:59:13;12.57;;;2.07;;
71048;SDS011;58704;53.358;-6.238;2023-11-19T04:01:40;10.32;;;1.80;;
71048;SDS011;58704;53.358;-6.238;2023-11-19T04:04:05;7.23;;;1.77;;
71048;SDS011;58704;53.358;-6.238;2023-11-19T04:06:31;11.13;;;2.25;;
71048;SDS011;58704;53.358;-6.238;2023-11-19T04:08:56;13.57;;;2.67;;
71048;SDS011;58704;53.358;-6.238;2023-11-19T04:11:22;16.73;;;2.53;;
71048;SDS011;58704;53.358;-6.238;2023-11-19T04:13:47;11.37;;;2.20;;
71048;SDS011;58704;53.358;-6.238;2023-11-19T04:16:12;10.77;;;1.83;;
71048;SDS011;58704;53.358;-6.238;2023-11-19T04:18:37;14.47;;;2.40;;
71048;SDS011;58704;53.358;-6.238;2023-11-19T04:21:05;9.63;;;1.90;;
71048;SDS011;58704;53.358;-6.238;2023-11-19T04:23:31;16.63;;;2.45;;
71048;SDS011;58704;53.358;-6.238;2023-11-19T04:25:56;12.13;;;2.13;;
71048;SDS011;58704;53.358;-6.238;2023-11-19T04:28:21;11.50;;;1.93;;
71048;SDS011;58704;53.358;-6.238;2023-11-19T04:30:47;12.82;;;2.33;;
71048;SDS011;58704;53.358;-6.238;2023-11-19T04:33:12;11.03;;;2.00;;
71048;SDS011;58704;53.358;-6.238;2023-11-19T04:35:37;10.20;;;2.17;;
71048;SDS011;58704;53.358;-6.238;2023-11-19T04:38:03;10.10;;;2.00;;
71048;SDS011;58704;53.358;-6.238;2023-11-19T04:40:28;9.40;;;2.07;;
71048;SDS011;58704;53.358;-6.238;2023-11-19T04:42:53;13.97;;;1.87;;
71048;SDS011;58704;53.358;-6.238;2023-11-19T04:45:19;15.67;;;2.40;;
71048;SDS011;58704;53.358;-6.238;2023-11-19T04:47:45;9.57;;;2.15;;
71048;SDS011;58704;53.358;-6.238;2023-11-19T04:50:10;8.60;;;1.80;;
71048;SDS011;58704;53.358;-6.238;2023-11-19T04:52:38;10.77;;;2.13;;
71048;SDS011;58704;53.358;-6.238;2023-11-19T04:55:05;8.77;;;1.98;;
71048;SDS011;58704;53.358;-6.238;2023-11-19T04:57:30;10.57;;;1.77;;
71048;SDS011;58704;53.358;-6.238;2023-11-19T04:59:57;12.63;;;1.55;;
71048;SDS011;58704;53.358;-6.238;2023-11-19T05:02:23;10.33;;;1.80;;
71048;SDS011;58704;53.358;-6.238;2023-11-19T05:04:48;9.20;;;2.30;;
71048;SDS011;58704;53.358;-6.238;2023-11-19T05:07:14;11.13;;;1.80;;
71048;SDS011;58704;53.358;-6.238;2023-11-19T05:09:39;10.50;;;1.47;;
71048;SDS011;58704;53.358;-6.238;2023-11-19T05:12:04;11.47;;;2.50;;
71048;SDS011;58704;53.358;-6.238;2023-11-19T05:14:30;7.00;;;1.55;;
71048;SDS011;58704;53.358;-6.238;2023-11-19T05:16:55;6.30;;;1.43;;
71048;SDS011;58704;53.358;-6.238;2023-11-19T05:19:20;7.37;;;1.37;;
71048;SDS011;58704;53.358;-6.238;2023-11-19T05:21:45;14.33;;;2.00;;
71048;SDS011;58704;53.358;-6.238;2023-11-19T05:24:11;7.83;;;1.80;;
71048;SDS011;58704;53.358;-6.238;2023-11-19T05:26:39;12.27;;;1.83;;
71048;SDS011;58704;53.358;-6.238;2023-11-19T05:29:05;11.87;;;1.60;;
71048;SDS011;58704;53.358;-6.238;2023-11-19T05:31:30;11.10;;;2.00;;
71048;SDS011;58704;53.358;-6.238;2023-11-19T05:33:55;7.50;;;1.80;;
71048;SDS011;58704;53.358;-6.238;2023-11-19T05:36:21;8.20;;;1.67;;
71048;SDS011;58704;53.358;-6.238;2023-11-19T05:38:46;8.23;;;1.60;;
71048;SDS011;58704;53.358;-6.238;2023-11-19T05:41:11;9.93;;;1.60;;
71048;SDS011;58704;53.358;-6.238;2023-11-19T05:43:37;7.27;;;1.53;;
71048;SDS011;58704;53.358;-6.238;2023-11-19T05:46:02;9.93;;;1.60;;
71048;SDS011;58704;53.358;-6.238;2023-11-19T05:48:28;8.60;;;1.33;;
71048;SDS011;58704;53.358;-6.238;2023-11-19T05:50:53;8.00;;;1.20;;
71048;SDS011;58704;53.358;-6.238;2023-11-19T05:53:19;10.68;;;1.50;;
71048;SDS011;58704;53.358;-6.238;2023-11-19T05:55:45;6.07;;;1.70;;
71048;SDS011;58704;53.358;-6.238;2023-11-19T05:58:26;9.93;;;1.63;;
71048;SDS011;58704;53.358;-6.238;2023-11-19T06:00:54;5.30;;;1.63;;
71048;SDS011;58704;53.358;-6.238;2023-11-19T06:03:19;7.00;;;1.60;;
71048;SDS011;58704;53.358;-6.238;2023-11-19T06:05:46;3.80;;;1.23;;
71048;SDS011;58704;53.358;-6.238;2023-11-19T06:08:11;7.20;;;1.10;;
71048;SDS011;58704;53.358;-6.238;2023-11-19T06:10:38;7.03;;;1.10;;
71048;SDS011;58704;53.358;-6.238;2023-11-19T06:13:03;4.88;;;1.40;;
71048;SDS011;58704;53.358;-6.238;2023-11-19T06:15:30;8.33;;;1.20;;
71048;SDS011;58704;53.358;-6.238;2023-11-19T06:17:55;7.40;;;1.10;;
71048;SDS011;58704;53.358;-6.238;2023-11-19T06:20:21;10.18;;;1.60;;
71048;SDS011;58704;53.358;-6.238;2023-11-19T06:22:46;7.53;;;1.50;;
71048;SDS011;58704;53.358;-6.238;2023-11-19T06:25:11;4.80;;;1.40;;
71048;SDS011;58704;53.358;-6.238;2023-11-19T06:27:37;9.25;;;1.50;;
71048;SDS011;58704;53.358;-6.238;2023-11-19T06:30:02;4.33;;;1.00;;
71048;SDS011;58704;53.358;-6.238;2023-11-19T06:32:28;7.43;;;1.50;;
71048;SDS011;58704;53.358;-6.238;2023-11-19T06:34:53;5.03;;;1.17;;
71048;SDS011;58704;53.358;-6.238;2023-11-19T06:37:19;4.23;;;1.00;;
71048;SDS011;58704;53.358;-6.238;2023-11-19T06:39:44;4.93;;;0.90;;
71048;SDS011;58704;53.358;-6.238;2023-11-19T06:42:09;9.53;;;1.87;;
71048;SDS011;58704;53.358;-6.238;2023-11-19T06:44:35;9.03;;;1.40;;
71048;SDS011;58704;53.358;-6.238;2023-11-19T06:47:00;5.90;;;1.30;;
71048;SDS011;58704;53.358;-6.238;2023-11-19T06:49:25;7.87;;;1.53;;
71048;SDS011;58704;53.358;-6.238;2023-11-19T06:51:50;4.30;;;1.03;;
71048;SDS011;58704;53.358;-6.238;2023-11-19T06:54:15;5.37;;;1.27;;
71048;SDS011;58704;53.358;-6.238;2023-11-19T06:56:41;7.00;;;1.43;;
71048;SDS011;58704;53.358;-6.238;2023-11-19T06:59:06;4.43;;;0.97;;
71048;SDS011;58704;53.358;-6.238;2023-11-19T07:01:35;6.73;;;1.50;;
71048;SDS011;58704;53.358;-6.238;2023-11-19T07:04:01;5.60;;;1.33;;
71048;SDS011;58704;53.358;-6.238;2023-11-19T07:06:33;6.57;;;1.58;;
71048;SDS011;58704;53.358;-6.238;2023-11-19T07:08:58;8.20;;;1.37;;
71048;SDS011;58704;53.358;-6.238;2023-11-19T07:11:23;7.50;;;1.73;;
71048;SDS011;58704;53.358;-6.238;2023-11-19T07:13:48;9.20;;;1.57;;
71048;SDS011;58704;53.358;-6.238;2023-11-19T07:16:14;7.47;;;1.73;;
71048;SDS011;58704;53.358;-6.238;2023-11-19T07:18:39;7.65;;;1.20;;
71048;SDS011;58704;53.358;-6.238;2023-11-19T07:21:05;6.60;;;1.63;;
71048;SDS011;58704;53.358;-6.238;2023-11-19T07:23:30;6.53;;;1.40;;
71048;SDS011;58704;53.358;-6.238;2023-11-19T07:25:56;4.82;;;1.40;;
71048;SDS011;58704;53.358;-6.238;2023-11-19T07:28:21;5.93;;;1.50;;
71048;SDS011;58704;53.358;-6.238;2023-11-19T07:30:46;4.37;;;1.37;;
71048;SDS011;58704;53.358;-6.238;2023-11-19T07:33:12;6.43;;;1.25;;
71048;SDS011;58704;53.358;-6.238;2023-11-19T07:35:38;7.23;;;1.60;;
71048;SDS011;58704;53.358;-6.238;2023-11-19T07:38:04;6.15;;;2.05;;
71048;SDS011;58704;53.358;-6.238;2023-11-19T07:40:30;9.40;;;1.83;;
71048;SDS011;58704;53.358;-6.238;2023-11-19T07:42:55;6.23;;;1.40;;
71048;SDS011;58704;53.358;-6.238;2023-11-19T07:45:20;5.20;;;1.30;;
71048;SDS011;58704;53.358;-6.238;2023-11-19T07:47:46;5.33;;;1.60;;
71048;SDS011;58704;53.358;-6.238;2023-11-19T07:50:11;7.90;;;1.37;;
71048;SDS011;58704;53.358;-6.238;2023-11-19T07:52:39;5.63;;;1.33;;
71048;SDS011;58704;53.358;-6.238;2023-11-19T07:55:04;4.33;;;1.23;;
71048;SDS011;58704;53.358;-6.238;2023-11-19T07:57:30;3.53;;;1.33;;
71048;SDS011;58704;53.358;-6.238;2023-11-19T07:59:56;6.30;;;1.17;;
71048;SDS011;58704;53.358;-6.238;2023-11-19T08:02:21;4.47;;;1.00;;
71048;SDS011;58704;53.358;-6.238;2023-11-19T08:04:48;7.10;;;1.80;;
71048;SDS011;58704;53.358;-6.238;2023-11-19T08:07:16;5.22;;;1.10;;
71048;SDS011;58704;53.358;-6.238;2023-11-19T08:09:41;4.60;;;0.90;;
71048;SDS011;58704;53.358;-6.238;2023-11-19T08:12:07;2.95;;;1.10;;
71048;SDS011;58704;53.358;-6.238;2023-11-19T08:14:33;9.93;;;1.07;;
71048;SDS011;58704;53.358;-6.238;2023-11-19T08:16:58;4.33;;;1.10;;
71048;SDS011;58704;53.358;-6.238;2023-11-19T08:19:23;6.07;;;1.50;;
71048;SDS011;58704;53.358;-6.238;2023-11-19T08:21:48;4.87;;;1.80;;
71048;SDS011;58704;53.358;-6.238;2023-11-19T08:24:14;4.90;;;0.93;;
71048;SDS011;58704;53.358;-6.238;2023-11-19T08:26:39;3.90;;;1.00;;
71048;SDS011;58704;53.358;-6.238;2023-11-19T08:29:04;3.33;;;1.10;;
71048;SDS011;58704;53.358;-6.238;2023-11-19T08:31:29;1.53;;;0.90;;
71048;SDS011;58704;53.358;-6.238;2023-11-19T08:33:55;3.53;;;1.07;;
71048;SDS011;58704;53.358;-6.238;2023-11-19T08:36:20;2.93;;;0.70;;
71048;SDS011;58704;53.358;-6.238;2023-11-19T08:38:46;3.47;;;1.13;;
71048;SDS011;58704;53.358;-6.238;2023-11-19T08:41:11;3.00;;;0.90;;
71048;SDS011;58704;53.358;-6.238;2023-11-19T08:43:37;3.27;;;0.93;;
71048;SDS011;58704;53.358;-6.238;2023-11-19T08:46:03;2.47;;;0.90;;
71048;SDS011;58704;53.358;-6.238;2023-11-19T08:48:29;1.57;;;0.80;;
71048;SDS011;58704;53.358;-6.238;2023-11-19T08:50:54;1.97;;;1.10;;
71048;SDS011;58704;53.358;-6.238;2023-11-19T08:53:19;1.93;;;0.87;;
71048;SDS011;58704;53.358;-6.238;2023-11-19T08:55:44;2.20;;;0.77;;
71048;SDS011;58704;53.358;-6.238;2023-11-19T08:58:09;3.07;;;0.70;;
71048;SDS011;58704;53.358;-6.238;2023-11-19T09:00:35;1.13;;;0.87;;
71048;SDS011;58704;53.358;-6.238;2023-11-19T09:03:00;1.83;;;0.53;;
71048;SDS011;58704;53.358;-6.238;2023-11-19T09:05:25;1.17;;;0.60;;
71048;SDS011;58704;53.358;-6.238;2023-11-19T09:07:50;1.57;;;0.97;;
71048;SDS011;58704;53.358;-6.238;2023-11-19T09:10:16;1.90;;;0.80;;
71048;SDS011;58704;53.358;-6.238;2023-11-19T09:12:41;1.30;;;0.77;;
71048;SDS011;58704;53.358;-6.238;2023-11-19T09:15:06;0.80;;;0.73;;
71048;SDS011;58704;53.358;-6.238;2023-11-19T09:17:32;0.80;;;0.60;;
71048;SDS011;58704;53.358;-6.238;2023-11-19T09:19:57;2.70;;;0.80;;
71048;SDS011;58704;53.358;-6.238;2023-11-19T09:22:22;1.27;;;0.90;;
71048;SDS011;58704;53.358;-6.238;2023-11-19T09:24:47;3.10;;;0.87;;
71048;SDS011;58704;53.358;-6.238;2023-11-19T09:27:13;2.25;;;0.70;;
71048;SDS011;58704;53.358;-6.238;2023-11-19T09:29:39;1.20;;;0.67;;
71048;SDS011;58704;53.358;-6.238;2023-11-19T09:32:04;0.87;;;0.50;;
71048;SDS011;58704;53.358;-6.238;2023-11-19T09:34:29;1.63;;;1.10;;
71048;SDS011;58704;53.358;-6.238;2023-11-19T09:36:55;0.80;;;0.60;;
71048;SDS011;58704;53.358;-6.238;2023-11-19T09:39:20;2.37;;;0.70;;
71048;SDS011;58704;53.358;-6.238;2023-11-19T09:41:46;1.00;;;0.53;;
71048;SDS011;58704;53.358;-6.238;2023-11-19T09:44:12;1.17;;;0.63;;
71048;SDS011;58704;53.358;-6.238;2023-11-19T09:46:38;0.63;;;0.63;;
71048;SDS011;58704;53.358;-6.238;2023-11-19T09:49:04;1.05;;;0.70;;
71048;SDS011;58704;53.358;-6.238;2023-11-19T09:51:32;2.15;;;0.77;;
71048;SDS011;58704;53.358;-6.238;2023-11-19T09:53:57;1.23;;;0.80;;
71048;SDS011;58704;53.358;-6.238;2023-11-19T09:56:23;1.23;;;0.57;;
71048;SDS011;58704;53.358;-6.238;2023-11-19T09:58:49;1.10;;;0.80;;
71048;SDS011;58704;53.358;-6.238;2023-11-19T10:01:14;1.97;;;1.07;;
71048;SDS011;58704;53.358;-6.238;2023-11-19T10:03:39;5.07;;;0.80;;
71048;SDS011;58704;53.358;-6.238;2023-11-19T10:06:06;2.35;;;0.57;;
71048;SDS011;58704;53.358;-6.238;2023-11-19T10:08:31;1.75;;;0.75;;
71048;SDS011;58704;53.358;-6.238;2023-11-19T10:10:57;1.23;;;0.80;;
71048;SDS011;58704;53.358;-6.238;2023-11-19T10:13:31;1.27;;;0.90;;
71048;SDS011;58704;53.358;-6.238;2023-11-19T10:15:56;1.55;;;0.93;;
71048;SDS011;58704;53.358;-6.238;2023-11-19T10:18:25;5.07;;;1.10;;
71048;SDS011;58704;53.358;-6.238;2023-11-19T10:20:51;1.93;;;1.20;;
71048;SDS011;58704;53.358;-6.238;2023-11-19T10:23:17;3.70;;;0.90;;
71048;SDS011;58704;53.358;-6.238;2023-11-19T10:25:42;3.13;;;1.00;;
71048;SDS011;58704;53.358;-6.238;2023-11-19T10:28:07;3.13;;;1.00;;
71048;SDS011;58704;53.358;-6.238;2023-11-19T10:30:32;2.13;;;1.10;;
71048;SDS011;58704;53.358;-6.238;2023-11-19T10:33:05;5.07;;;1.17;;
71048;SDS011;58704;53.358;-6.238;2023-11-19T10:35:31;1.83;;;0.77;;
71048;SDS011;58704;53.358;-6.238;2023-11-19T10:37:58;2.80;;;0.80;;
71048;SDS011;58704;53.358;-6.238;2023-11-19T10:40:23;3.28;;;1.55;;
71048;SDS011;58704;53.358;-6.238;2023-11-19T10:42:59;3.17;;;1.27;;
71048;SDS011;58704;53.358;-6.238;2023-11-19T10:45:26;1.75;;;1.00;;
71048;SDS011;58704;53.358;-6.238;2023-11-19T10:47:51;4.70;;;1.20;;
71048;SDS011;58704;53.358;-6.238;2023-11-19T10:50:17;2.50;;;1.07;;
71048;SDS011;58704;53.358;-6.238;2023-11-19T10:52:43;2.13;;;1.10;;
71048;SDS011;58704;53.358;-6.238;2023-11-19T10:55:08;2.30;;;1.00;;
71048;SDS011;58704;53.358;-6.238;2023-11-19T10:57:36;2.85;;;0.90;;
71048;SDS011;58704;53.358;-6.238;2023-11-19T11:00:02;3.23;;;1.10;;
71048;SDS011;58704;53.358;-6.238;2023-11-19T11:02:29;1.30;;;1.05;;
71048;SDS011;58704;53.358;-6.238;2023-11-19T11:04:55;1.67;;;0.80;;
71048;SDS011;58704;53.358;-6.238;2023-11-19T11:07:21;5.35;;;0.90;;
71048;SDS011;58704;53.358;-6.238;2023-11-19T11:09:50;4.60;;;0.98;;
71048;SDS011;58704;53.358;-6.238;2023-11-19T11:12:16;3.03;;;1.10;;
71048;SDS011;58704;53.358;-6.238;2023-11-19T11:14:42;2.85;;;0.70;;
71048;SDS011;58704;53.358;-6.238;2023-11-19T11:17:09;2.92;;;1.13;;
71048;SDS011;58704;53.358;-6.238;2023-11-19T11:19:36;5.85;;;1.00;;
71048;SDS011;58704;53.358;-6.238;2023-11-19T11:22:02;2.57;;;1.20;;
71048;SDS011;58704;53.358;-6.238;2023-11-19T11:24:32;1.67;;;0.98;;
71048;SDS011;58704;53.358;-6.238;2023-11-19T11:35:08;1.40;;;0.77;;
71048;SDS011;58704;53.358;-6.238;2023-11-19T11:37:37;1.13;;;0.90;;
71048;SDS011;58704;53.358;-6.238;2023-11-19T11:40:04;2.30;;;0.77;;
71048;SDS011;58704;53.358;-6.238;2023-11-19T11:42:35;0.90;;;0.90;;
71048;SDS011;58704;53.358;-6.238;2023-11-19T11:50:12;3.27;;;1.10;;
71048;SDS011;58704;53.358;-6.238;2023-11-19T11:56:06;1.52;;;0.82;;
71048;SDS011;58704;53.358;-6.238;2023-11-19T11:58:07;2.30;;;1.05;;
71048;SDS011;58704;53.358;-6.238;2023-11-19T12:00:37;2.55;;;1.05;;
71048;SDS011;58704;53.358;-6.238;2023-11-19T12:03:03;2.80;;;1.00;;
71048;SDS011;58704;53.358;-6.238;2023-11-19T12:05:29;2.05;;;1.15;;
71048;SDS011;58704;53.358;-6.238;2023-11-19T12:08:01;1.42;;;0.90;;
71048;SDS011;58704;53.358;-6.238;2023-11-19T12:10:30;1.25;;;0.93;;
71048;SDS011;58704;53.358;-6.238;2023-11-19T12:13:00;1.13;;;0.90;;
71048;SDS011;58704;53.358;-6.238;2023-11-19T12:15:25;2.85;;;1.00;;
71048;SDS011;58704;53.358;-6.238;2023-11-19T12:17:52;2.65;;;1.13;;
71048;SDS011;58704;53.358;-6.238;2023-11-19T12:20:19;3.37;;;1.00;;
71048;SDS011;58704;53.358;-6.238;2023-11-19T12:22:44;3.60;;;1.50;;
71048;SDS011;58704;53.358;-6.238;2023-11-19T12:25:10;3.00;;;1.33;;
71048;SDS011;58704;53.358;-6.238;2023-11-19T12:27:37;2.30;;;1.10;;
71048;SDS011;58704;53.358;-6.238;2023-11-19T12:30:03;2.80;;;1.57;;
71048;SDS011;58704;53.358;-6.238;2023-11-19T12:32:39;2.88;;;1.42;;
71048;SDS011;58704;53.358;-6.238;2023-11-19T12:35:05;5.13;;;1.60;;
71048;SDS011;58704;53.358;-6.238;2023-11-19T12:37:30;4.17;;;1.60;;
71048;SDS011;58704;53.358;-6.238;2023-11-19T12:39:56;4.75;;;1.42;;
71048;SDS011;58704;53.358;-6.238;2023-11-19T12:42:34;2.80;;;1.57;;
71048;SDS011;58704;53.358;-6.238;2023-11-19T12:44:59;3.83;;;1.20;;
71048;SDS011;58704;53.358;-6.238;2023-11-19T12:47:24;2.80;;;1.73;;
71048;SDS011;58704;53.358;-6.238;2023-11-19T12:49:56;2.63;;;1.10;;
71048;SDS011;58704;53.358;-6.238;2023-11-19T12:52:22;2.50;;;0.90;;
71048;SDS011;58704;53.358;-6.238;2023-11-19T12:54:48;7.43;;;1.55;;
71048;SDS011;58704;53.358;-6.238;2023-11-19T12:57:13;6.57;;;1.40;;
71048;SDS011;58704;53.358;-6.238;2023-11-19T12:59:38;4.23;;;1.47;;
71048;SDS011;58704;53.358;-6.238;2023-11-19T13:02:04;4.57;;;1.40;;
71048;SDS011;58704;53.358;-6.238;2023-11-19T13:04:30;2.08;;;1.38;;
71048;SDS011;58704;53.358;-6.238;2023-11-19T13:06:56;4.07;;;1.50;;
71048;SDS011;58704;53.358;-6.238;2023-11-19T13:09:31;2.75;;;0.98;;
71048;SDS011;58704;53.358;-6.238;2023-11-19T13:11:56;4.57;;;1.40;;
71048;SDS011;58704;53.358;-6.238;2023-11-19T13:14:22;4.23;;;1.60;;
71048;SDS011;58704;53.358;-6.238;2023-11-19T13:16:48;4.32;;;1.70;;
71048;SDS011;58704;53.358;-6.238;2023-11-19T13:19:14;5.77;;;1.80;;
71048;SDS011;58704;53.358;-6.238;2023-11-19T13:21:41;11.30;;;2.50;;
71048;SDS011;58704;53.358;-6.238;2023-11-19T13:24:07;8.98;;;1.70;;
71048;SDS011;58704;53.358;-6.238;2023-11-19T13:26:32;10.97;;;2.27;;
71048;SDS011;58704;53.358;-6.238;2023-11-19T13:28:57;18.07;;;2.50;;
71048;SDS011;58704;53.358;-6.238;2023-11-19T13:31:22;10.00;;;2.30;;
71048;SDS011;58704;53.358;-6.238;2023-11-19T13:33:48;15.60;;;2.07;;
71048;SDS011;58704;53.358;-6.238;2023-11-19T13:36:13;14.30;;;2.43;;
71048;SDS011;58704;53.358;-6.238;2023-11-19T13:38:38;13.70;;;2.90;;
71048;SDS011;58704;53.358;-6.238;2023-11-19T13:41:06;24.33;;;3.10;;
71048;SDS011;58704;53.358;-6.238;2023-11-19T13:43:31;19.43;;;2.53;;
71048;SDS011;58704;53.358;-6.238;2023-11-19T13:45:56;15.37;;;2.27;;
71048;SDS011;58704;53.358;-6.238;2023-11-19T13:48:23;15.38;;;2.92;;
71048;SDS011;58704;53.358;-6.238;2023-11-19T13:50:48;13.97;;;3.17;;
71048;SDS011;58704;53.358;-6.238;2023-11-19T13:53:13;9.87;;;2.93;;
71048;SDS011;58704;53.358;-6.238;2023-11-19T13:55:39;8.90;;;2.83;;
71048;SDS011;58704;53.358;-6.238;2023-11-19T13:58:04;11.50;;;2.60;;
71048;SDS011;58704;53.358;-6.238;2023-11-19T14:00:29;13.73;;;2.60;;
71048;SDS011;58704;53.358;-6.238;2023-11-19T14:02:54;15.77;;;2.83;;
71048;SDS011;58704;53.358;-6.238;2023-11-19T14:05:20;12.17;;;2.70;;
71048;SDS011;58704;53.358;-6.238;2023-11-19T14:07:45;12.95;;;2.17;;
71048;SDS011;58704;53.358;-6.238;2023-11-19T14:10:13;12.50;;;2.13;;
71048;SDS011;58704;53.358;-6.238;2023-11-19T14:12:40;12.40;;;2.10;;
71048;SDS011;58704;53.358;-6.238;2023-11-19T14:15:05;12.27;;;2.20;;
71048;SDS011;58704;53.358;-6.238;2023-11-19T14:17:31;12.55;;;2.70;;
71048;SDS011;58704;53.358;-6.238;2023-11-19T14:19:56;16.50;;;2.88;;
71048;SDS011;58704;53.358;-6.238;2023-11-19T14:22:22;13.23;;;2.37;;
71048;SDS011;58704;53.358;-6.238;2023-11-19T14:24:47;13.27;;;3.43;;
71048;SDS011;58704;53.358;-6.238;2023-11-19T14:27:12;12.13;;;2.07;;
71048;SDS011;58704;53.358;-6.238;2023-11-19T14:29:38;11.73;;;1.90;;
71048;SDS011;58704;53.358;-6.238;2023-11-19T14:32:04;10.23;;;2.25;;
71048;SDS011;58704;53.358;-6.238;2023-11-19T14:34:30;6.43;;;2.03;;
71048;SDS011;58704;53.358;-6.238;2023-11-19T14:36:55;13.80;;;2.60;;